createdAt,value
2022-08-26T00:01:54.795Z,8.97
2022-08-26T00:04:25.773Z,8.57
2022-08-26T00:06:54.315Z,10.17
2022-08-26T00:09:22.251Z,10.47
2022-08-26T00:11:50.012Z,10.30
2022-08-26T00:14:18.399Z,9.03
2022-08-26T00:16:47.525Z,9.13
2022-08-26T00:19:19.596Z,9.90
2022-08-26T00:21:49.669Z,8.77
2022-08-26T00:24:19.992Z,8.40
2022-08-26T00:26:48.217Z,8.57
2022-08-26T00:29:15.800Z,9.10
2022-08-26T00:31:45.265Z,8.97
2022-08-26T00:34:13.892Z,9.33
2022-08-26T00:36:41.497Z,9.57
2022-08-26T00:39:09.814Z,11.43
2022-08-26T00:41:40.116Z,11.50
2022-08-26T00:44:08.836Z,9.70
2022-08-26T00:46:46.893Z,8.50
2022-08-26T00:49:29.510Z,9.23
2022-08-26T00:51:58.920Z,8.50
2022-08-26T00:54:30.855Z,9.43
2022-08-26T00:57:02.979Z,9.93
2022-08-26T00:59:33.311Z,9.83
2022-08-26T01:02:02.783Z,9.03
2022-08-26T01:04:32.273Z,9.03
2022-08-26T01:07:00.340Z,9.53
2022-08-26T01:09:28.676Z,9.63
2022-08-26T01:12:00.132Z,10.57
2022-08-26T01:14:31.220Z,11.77
2022-08-26T01:16:59.107Z,10.80
2022-08-26T01:19:31.465Z,10.03
2022-08-26T01:22:20.376Z,8.80
2022-08-26T01:24:49.472Z,9.40
2022-08-26T01:27:20.846Z,8.63
2022-08-26T01:29:49.703Z,8.70
2022-08-26T01:32:20.285Z,9.10
2022-08-26T01:34:48.826Z,9.17
2022-08-26T01:37:22.109Z,8.90
2022-08-26T01:39:52.478Z,9.83
2022-08-26T01:45:13.148Z,10.13
2022-08-26T01:47:42.094Z,10.47
2022-08-26T01:50:27.516Z,9.63
2022-08-26T01:52:56.935Z,9.40
2022-08-26T01:55:29.281Z,9.13
2022-08-26T01:58:05.179Z,9.60
2022-08-26T02:00:34.764Z,8.90
2022-08-26T02:03:18.642Z,8.80
2022-08-26T02:06:04.448Z,9.50
2022-08-26T02:08:42.235Z,8.87
2022-08-26T02:11:09.888Z,9.07
2022-08-26T02:14:09.582Z,7.80
2022-08-26T02:16:44.437Z,7.67
2022-08-26T02:19:20.705Z,12.20
2022-08-26T02:21:51.146Z,10.93
2022-08-26T02:24:27.575Z,10.70
2022-08-26T02:26:58.014Z,9.07
2022-08-26T02:29:31.955Z,9.33
2022-08-26T02:31:59.661Z,10.70
2022-08-26T02:34:31.126Z,8.87
2022-08-26T02:37:05.351Z,9.87
2022-08-26T02:39:34.118Z,11.53
2022-08-26T02:42:01.863Z,13.87
2022-08-26T02:44:29.498Z,12.70
2022-08-26T02:46:57.193Z,10.30
2022-08-26T02:49:25.108Z,10.53
2022-08-26T02:51:53.175Z,11.20
2022-08-26T02:54:21.870Z,10.00
2022-08-26T02:56:49.622Z,10.20
2022-08-26T02:59:20.311Z,10.33
2022-08-26T03:01:52.183Z,10.20
2022-08-26T03:04:25.928Z,10.60
2022-08-26T03:06:55.427Z,10.77
2022-08-26T03:09:23.673Z,13.10
2022-08-26T03:11:52.272Z,11.93
2022-08-26T03:14:19.797Z,11.67
2022-08-26T03:16:48.516Z,12.30
2022-08-26T03:19:17.707Z,11.63
2022-08-26T03:21:47.365Z,11.10
2022-08-26T03:24:15.605Z,13.30
2022-08-26T03:26:52.367Z,11.97
2022-08-26T03:29:39.266Z,12.47
2022-08-26T03:32:06.863Z,12.63
2022-08-26T03:34:34.580Z,14.10
2022-08-26T03:37:02.676Z,13.37
2022-08-26T03:39:31.683Z,13.50
2022-08-26T03:42:01.018Z,13.77
2022-08-26T03:44:28.543Z,13.13
2022-08-26T03:46:56.090Z,12.57
2022-08-26T03:49:23.442Z,12.00
2022-08-26T03:51:50.959Z,12.47
2022-08-26T03:54:18.485Z,14.07
2022-08-26T03:56:46.462Z,14.10
2022-08-26T03:59:14.317Z,14.70
2022-08-26T04:01:42.392Z,15.80
2022-08-26T04:04:10.038Z,14.70
2022-08-26T04:06:44.613Z,14.60
2022-08-26T04:09:20.904Z,14.50
2022-08-26T04:11:50.738Z,14.43
2022-08-26T04:14:23.900Z,16.90
2022-08-26T04:16:53.038Z,14.53
2022-08-26T04:19:24.451Z,13.70
2022-08-26T04:21:53.570Z,15.33
2022-08-26T04:24:23.602Z,16.23
2022-08-26T04:26:51.156Z,14.93
2022-08-26T04:29:24.332Z,14.50
2022-08-26T04:31:55.469Z,15.17
2022-08-26T04:34:28.548Z,14.70
2022-08-26T04:36:58.854Z,15.13
2022-08-26T04:39:27.767Z,20.20
2022-08-26T04:41:55.999Z,18.07
2022-08-26T04:44:27.966Z,19.50
2022-08-26T04:46:56.486Z,21.30
2022-08-26T04:49:23.851Z,20.70
2022-08-26T04:51:53.771Z,18.50
2022-08-26T04:54:22.368Z,18.30
2022-08-26T04:56:51.113Z,23.67
2022-08-26T04:59:18.714Z,19.23
2022-08-26T05:01:49.193Z,19.03
2022-08-26T05:04:19.022Z,18.33
2022-08-26T05:06:48.121Z,17.90
2022-08-26T05:09:16.668Z,18.80
2022-08-26T05:11:44.544Z,16.37
2022-08-26T05:14:16.530Z,16.87
2022-08-26T05:16:43.779Z,16.90
2022-08-26T05:19:18.724Z,20.73
2022-08-26T05:21:48.927Z,17.73
2022-08-26T05:24:17.451Z,18.10
2022-08-26T05:26:45.615Z,17.77
2022-08-26T05:29:14.315Z,18.03
2022-08-26T05:31:41.956Z,16.80
2022-08-26T05:34:09.349Z,16.03
2022-08-26T05:36:37.859Z,16.23
2022-08-26T05:39:07.259Z,16.17
2022-08-26T05:41:38.539Z,15.87
2022-08-26T05:44:09.707Z,16.43
2022-08-26T05:46:39.075Z,15.40
2022-08-26T05:49:12.572Z,15.60
2022-08-26T05:51:42.271Z,16.53
2022-08-26T05:54:10.405Z,18.07
2022-08-26T05:56:39.645Z,16.83
2022-08-26T05:59:10.927Z,21.33
2022-08-26T06:01:43.847Z,23.57
2022-08-26T06:04:12.706Z,19.63
2022-08-26T06:06:43.253Z,17.00
2022-08-26T06:09:12.633Z,16.87
2022-08-26T06:11:40.605Z,16.77
2022-08-26T06:14:09.322Z,19.58
2022-08-26T06:16:40.959Z,18.45
2022-08-26T06:19:11.569Z,15.23
2022-08-26T06:21:44.219Z,15.77
2022-08-26T06:24:32.308Z,14.40
2022-08-26T06:27:05.094Z,15.82
2022-08-26T06:29:36.125Z,16.58
2022-08-26T06:32:06.040Z,16.10
2022-08-26T06:34:34.125Z,16.77
2022-08-26T06:37:06.697Z,17.08
2022-08-26T06:39:34.360Z,19.38
2022-08-26T06:42:03.279Z,17.02
2022-08-26T06:44:33.789Z,15.80
2022-08-26T06:47:01.384Z,16.58
2022-08-26T06:49:29.031Z,18.92
2022-08-26T06:52:00.188Z,17.85
2022-08-26T06:54:30.579Z,17.27
2022-08-26T06:56:58.204Z,17.33
2022-08-26T06:59:26.152Z,16.25
2022-08-26T07:01:55.104Z,16.70
2022-08-26T07:04:24.872Z,18.30
2022-08-26T07:06:56.035Z,18.45
2022-08-26T07:09:25.654Z,20.85
2022-08-26T07:11:54.536Z,19.63
2022-08-26T07:14:22.100Z,19.83
2022-08-26T07:16:53.664Z,20.27
2022-08-26T07:19:30.254Z,18.52
2022-08-26T07:22:02.290Z,18.23
2022-08-26T07:24:32.263Z,18.27
2022-08-26T07:27:05.806Z,17.55
2022-08-26T07:29:34.897Z,16.02
2022-08-26T07:32:02.925Z,16.75
2022-08-26T07:34:33.311Z,17.35
2022-08-26T07:37:01.525Z,16.90
2022-08-26T07:39:31.451Z,15.30
2022-08-26T07:42:08.054Z,16.10
2022-08-26T07:44:37.669Z,14.57
2022-08-26T07:47:10.499Z,15.10
2022-08-26T07:49:53.683Z,18.05
2022-08-26T07:52:25.946Z,16.63
2022-08-26T07:54:55.150Z,16.80
2022-08-26T07:57:24.203Z,16.10
2022-08-26T07:59:52.430Z,14.93
2022-08-26T08:02:23.405Z,15.43
2022-08-26T08:04:52.073Z,16.17
2022-08-26T08:07:20.051Z,16.77
2022-08-26T08:09:50.389Z,15.65
2022-08-26T08:12:20.063Z,16.02
2022-08-26T08:14:48.899Z,15.32
2022-08-26T08:17:17.338Z,17.90
2022-08-26T08:19:50.165Z,17.63
2022-08-26T08:22:19.831Z,17.63
2022-08-26T08:24:52.855Z,15.55
2022-08-26T08:27:23.750Z,14.30
2022-08-26T08:29:54.996Z,13.18
2022-08-26T08:32:24.113Z,13.30
2022-08-26T08:34:51.789Z,12.23
2022-08-26T08:37:19.411Z,11.25
2022-08-26T08:39:46.714Z,12.68
2022-08-26T08:42:43.988Z,11.43
2022-08-26T08:45:16.798Z,14.63
2022-08-26T08:47:55.114Z,14.75
2022-08-26T08:50:52.929Z,13.88
2022-08-26T08:53:35.150Z,14.75
2022-08-26T08:56:11.266Z,14.82
2022-08-26T08:58:57.727Z,12.85
2022-08-26T09:01:42.391Z,12.48
2022-08-26T09:04:28.466Z,12.88
2022-08-26T09:07:00.542Z,9.75
2022-08-26T09:09:42.449Z,10.30
2022-08-26T09:12:20.671Z,9.80
2022-08-26T09:15:14.467Z,7.82
2022-08-26T09:17:51.297Z,7.95
2022-08-26T09:20:42.859Z,7.53
2022-08-26T09:23:13.952Z,7.43
2022-08-26T09:25:56.719Z,7.53
2022-08-26T09:28:26.964Z,7.68
2022-08-26T09:31:27.843Z,7.50
2022-08-26T09:34:12.578Z,6.97
2022-08-26T09:36:59.718Z,8.05
2022-08-26T09:39:37.808Z,7.75
2022-08-26T09:42:25.798Z,7.55
2022-08-26T09:45:10.741Z,7.22
2022-08-26T09:47:56.333Z,7.85
2022-08-26T09:50:31.231Z,7.55
2022-08-26T09:53:09.711Z,7.47
2022-08-26T09:55:43.012Z,7.70
2022-08-26T09:58:34.883Z,7.15
2022-08-26T10:01:09.222Z,6.93
2022-08-26T10:03:39.972Z,7.60
2022-08-26T10:06:18.100Z,6.97
2022-08-26T10:08:54.307Z,6.50
2022-08-26T10:11:40.010Z,6.60
2022-08-26T10:14:20.226Z,6.53
2022-08-26T10:16:59.860Z,6.25
2022-08-26T10:19:56.074Z,6.30
2022-08-26T10:22:42.682Z,6.28
2022-08-26T10:25:28.887Z,6.93
2022-08-26T10:28:45.931Z,6.03
2022-08-26T10:31:40.731Z,5.75
2022-08-26T10:34:12.555Z,4.65
2022-08-26T10:37:13.622Z,5.13
2022-08-26T10:40:22.849Z,5.72
2022-08-26T10:43:09.976Z,5.38
2022-08-26T10:45:54.200Z,5.22
2022-08-26T10:48:47.239Z,5.05
2022-08-26T10:51:19.636Z,4.70
2022-08-26T10:53:59.091Z,4.53
2022-08-26T10:57:02.851Z,4.47
2022-08-26T10:59:53.964Z,5.10
2022-08-26T11:02:46.917Z,4.30
2022-08-26T11:05:17.423Z,4.05
2022-08-26T11:07:46.484Z,5.20
2022-08-26T11:10:19.620Z,4.38
2022-08-26T11:12:52.283Z,5.07
2022-08-26T11:15:24.618Z,4.82
2022-08-26T11:17:55.738Z,4.65
2022-08-26T11:20:23.850Z,4.57
2022-08-26T11:22:53.830Z,4.20
2022-08-26T11:25:29.110Z,4.30
2022-08-26T11:28:00.998Z,4.00
2022-08-26T11:30:43.102Z,3.90
2022-08-26T11:33:31.604Z,4.32
2022-08-26T11:35:59.299Z,4.00
2022-08-26T11:38:29.693Z,3.53
2022-08-26T11:41:09.084Z,3.55
2022-08-26T11:43:38.189Z,3.35
2022-08-26T11:46:12.086Z,3.30
2022-08-26T11:48:44.065Z,3.15
2022-08-26T11:51:23.749Z,3.50
2022-08-26T11:53:51.849Z,3.67
2022-08-26T11:56:27.433Z,3.03
2022-08-26T11:59:02.490Z,3.20
2022-08-26T12:01:35.892Z,2.75
2022-08-26T12:04:11.100Z,2.97
2022-08-26T12:06:48.272Z,3.03
2022-08-26T12:09:23.035Z,2.78
2022-08-26T12:11:50.752Z,3.33
2022-08-26T12:14:27.719Z,3.35
2022-08-26T12:16:55.666Z,2.80
2022-08-26T12:19:33.284Z,3.00
2022-08-26T12:22:25.517Z,2.80
2022-08-26T12:25:08.719Z,2.65
2022-08-26T12:27:42.272Z,3.17
2022-08-26T12:30:19.221Z,3.15
2022-08-26T12:32:58.792Z,2.60
2022-08-26T12:35:29.451Z,2.72
2022-08-26T12:37:57.878Z,2.78
2022-08-26T12:40:50.553Z,3.17
2022-08-26T12:43:41.387Z,2.80
2022-08-26T12:46:12.331Z,2.53
2022-08-26T12:48:44.642Z,2.50
2022-08-26T12:51:43.265Z,2.65
2022-08-26T12:54:16.311Z,2.80
2022-08-26T12:56:43.803Z,2.67
2022-08-26T12:59:27.576Z,3.03
2022-08-26T13:01:55.229Z,2.42
2022-08-26T13:05:00.773Z,2.58
2022-08-26T13:07:28.556Z,2.88
2022-08-26T13:09:59.751Z,2.83
2022-08-26T13:12:33.585Z,2.30
2022-08-26T13:15:02.649Z,2.75
2022-08-26T13:17:31.234Z,2.47
2022-08-26T13:20:03.893Z,3.10
2022-08-26T13:22:32.139Z,2.45
2022-08-26T13:24:59.738Z,2.97
2022-08-26T13:27:28.326Z,2.78
2022-08-26T13:29:57.983Z,2.70
2022-08-26T13:32:27.632Z,2.92
2022-08-26T13:34:56.935Z,2.78
2022-08-26T13:37:35.060Z,2.58
2022-08-26T13:40:07.926Z,2.38
2022-08-26T13:42:35.448Z,2.60
2022-08-26T13:45:05.082Z,2.50
2022-08-26T13:47:32.997Z,2.50
2022-08-26T13:50:00.490Z,2.63
2022-08-26T13:52:30.587Z,2.58
2022-08-26T13:55:00.788Z,2.42
2022-08-26T13:57:30.378Z,2.58
2022-08-26T13:59:59.715Z,2.80
2022-08-26T14:02:28.659Z,3.03
2022-08-26T14:04:56.309Z,2.65
2022-08-26T14:07:24.067Z,2.88
2022-08-26T14:09:51.825Z,2.97
2022-08-26T14:12:19.301Z,3.22
2022-08-26T14:14:47.086Z,2.78
2022-08-26T14:17:18.865Z,2.88
2022-08-26T14:19:49.537Z,3.13
2022-08-26T14:22:19.900Z,2.92
2022-08-26T14:24:48.284Z,2.72
2022-08-26T14:27:16.309Z,3.08
2022-08-26T14:29:44.214Z,2.60
2022-08-26T14:32:17.224Z,3.20
2022-08-26T14:34:48.395Z,3.17
2022-08-26T14:37:16.041Z,2.95
2022-08-26T14:39:44.044Z,3.08
2022-08-26T14:42:20.803Z,3.55
2022-08-26T14:44:54.536Z,3.92
2022-08-26T14:47:22.087Z,3.72
2022-08-26T14:49:49.810Z,3.13
2022-08-26T14:52:18.102Z,3.00
2022-08-26T14:54:45.695Z,2.72
2022-08-26T14:57:14.588Z,2.70
2022-08-26T14:59:49.973Z,3.47
2022-08-26T15:02:32.462Z,3.53
2022-08-26T15:05:02.549Z,3.47
2022-08-26T15:07:30.364Z,3.58
2022-08-26T15:09:58.442Z,3.35
2022-08-26T15:12:26.569Z,3.20
2022-08-26T15:14:54.959Z,3.42
2022-08-26T15:17:22.359Z,3.05
2022-08-26T15:19:49.897Z,3.20
2022-08-26T15:22:18.051Z,3.42
2022-08-26T15:24:45.574Z,3.33
2022-08-26T15:27:13.011Z,3.95
2022-08-26T15:29:40.927Z,3.13
2022-08-26T15:32:08.588Z,2.88
2022-08-26T15:34:37.101Z,3.60
2022-08-26T15:37:05.863Z,3.75
2022-08-26T15:39:34.222Z,3.33
2022-08-26T15:42:01.806Z,3.17
2022-08-26T15:44:29.785Z,3.50
2022-08-26T15:46:59.057Z,4.20
2022-08-26T15:49:28.065Z,4.20
2022-08-26T15:51:55.583Z,4.88
2022-08-26T15:54:24.270Z,4.82
2022-08-26T15:56:53.508Z,5.20
2022-08-26T15:59:22.745Z,4.15
2022-08-26T16:01:50.646Z,4.53
2022-08-26T16:04:18.926Z,4.18
2022-08-26T16:06:50.584Z,4.15
2022-08-26T16:09:18.851Z,4.38
2022-08-26T16:11:46.280Z,4.72
2022-08-26T16:14:13.664Z,4.65
2022-08-26T16:16:41.514Z,3.95
2022-08-26T16:19:09.682Z,4.70
2022-08-26T16:21:46.619Z,3.88
2022-08-26T16:24:14.781Z,3.47
2022-08-26T16:26:43.380Z,3.80
2022-08-26T16:29:14.817Z,3.92
2022-08-26T16:31:43.013Z,2.80
2022-08-26T16:34:10.598Z,3.13
2022-08-26T16:36:39.282Z,3.25
2022-08-26T16:39:08.680Z,2.83
2022-08-26T16:41:36.580Z,2.67
2022-08-26T16:44:04.573Z,3.47
2022-08-26T16:46:32.109Z,3.08
2022-08-26T16:49:00.109Z,5.78
2022-08-26T16:51:29.857Z,9.45
2022-08-26T16:53:58.672Z,10.77
2022-08-26T16:56:34.144Z,6.97
2022-08-26T16:59:04.599Z,3.75
2022-08-26T17:01:33.009Z,3.47
2022-08-26T17:04:00.599Z,3.10
2022-08-26T17:06:28.255Z,4.07
2022-08-26T17:08:55.933Z,4.82
2022-08-26T17:11:23.342Z,4.47
2022-08-26T17:13:50.815Z,5.10
2022-08-26T17:16:20.427Z,5.85
2022-08-26T17:18:49.693Z,6.68
2022-08-26T17:21:17.497Z,6.00
2022-08-26T17:23:46.677Z,6.28
2022-08-26T17:26:14.120Z,5.65
2022-08-26T17:28:41.746Z,5.70
2022-08-26T17:31:13.339Z,5.53
2022-08-26T17:33:41.141Z,5.53
2022-08-26T17:36:09.862Z,6.97
2022-08-26T17:38:38.304Z,8.77
2022-08-26T17:41:13.347Z,7.40
2022-08-26T17:43:41.108Z,7.63
2022-08-26T17:46:10.459Z,5.93
2022-08-26T17:48:39.167Z,6.38
2022-08-26T17:51:12.877Z,4.95
2022-08-26T17:53:41.801Z,4.90
2022-08-26T17:56:11.528Z,5.18
2022-08-26T17:58:41.109Z,5.97
2022-08-26T18:01:15.910Z,5.40
2022-08-26T18:03:43.556Z,6.65
2022-08-26T18:06:12.670Z,5.43
2022-08-26T18:08:41.098Z,4.85
2022-08-26T18:11:20.659Z,5.47
2022-08-26T18:13:48.153Z,5.88
2022-08-26T18:16:17.773Z,8.57
2022-08-26T18:18:45.818Z,11.68
2022-08-26T18:21:18.900Z,11.73
2022-08-26T18:23:47.728Z,9.68
2022-08-26T18:26:36.409Z,8.32
2022-08-26T18:29:04.521Z,6.30
2022-08-26T18:31:32.408Z,5.53
2022-08-26T18:34:01.425Z,4.57
2022-08-26T18:36:31.788Z,4.30
2022-08-26T18:38:59.674Z,5.72
2022-08-26T18:41:30.793Z,7.22
2022-08-26T18:43:58.965Z,5.32
2022-08-26T18:46:27.834Z,4.68
2022-08-26T18:48:57.154Z,4.30
2022-08-26T18:51:33.700Z,5.07
2022-08-26T18:54:02.498Z,4.20
2022-08-26T18:56:31.743Z,4.22
2022-08-26T18:59:01.879Z,4.22
2022-08-26T19:01:31.250Z,4.82
2022-08-26T19:04:00.319Z,4.70
2022-08-26T19:06:33.170Z,4.60
2022-08-26T19:09:00.856Z,3.88
2022-08-26T19:11:31.603Z,3.80
2022-08-26T19:14:03.805Z,3.78
2022-08-26T19:16:31.742Z,4.30
2022-08-26T19:19:05.063Z,4.47
2022-08-26T19:21:34.922Z,4.35
2022-08-26T19:24:05.672Z,4.10
2022-08-26T19:26:33.752Z,4.03
2022-08-26T19:29:01.660Z,5.15
2022-08-26T19:31:29.240Z,6.18
2022-08-26T19:33:58.200Z,5.10
2022-08-26T19:36:27.591Z,7.10
2022-08-26T19:38:56.796Z,6.25
2022-08-26T19:41:37.319Z,6.57
2022-08-26T19:44:13.837Z,6.22
2022-08-26T19:46:42.354Z,6.32
2022-08-26T19:49:10.118Z,6.22
2022-08-26T19:51:37.508Z,5.53
2022-08-26T19:54:05.825Z,7.10
2022-08-26T19:56:33.143Z,5.15
2022-08-26T19:59:01.065Z,4.60
2022-08-26T20:01:28.517Z,4.82
2022-08-26T20:06:28.178Z,5.43
2022-08-26T20:08:56.189Z,4.63
2022-08-26T20:11:24.523Z,4.60
2022-08-26T20:13:51.896Z,4.03
2022-08-26T20:16:19.385Z,4.57
2022-08-26T20:19:06.837Z,5.15
2022-08-26T20:21:38.422Z,8.88
2022-08-26T20:24:10.749Z,7.72
2022-08-26T20:26:40.325Z,6.68
2022-08-26T20:29:09.674Z,6.10
2022-08-26T20:31:41.671Z,5.97
2022-08-26T20:34:09.408Z,6.38
2022-08-26T20:36:39.019Z,6.30
2022-08-26T20:39:07.333Z,5.88
2022-08-26T20:41:35.731Z,6.47
2022-08-26T20:44:04.259Z,6.82
2022-08-26T20:46:34.122Z,6.53
2022-08-26T20:49:01.600Z,6.40
2022-08-26T20:51:29.429Z,6.03
2022-08-26T20:53:57.125Z,5.68
2022-08-26T20:56:25.157Z,6.05
2022-08-26T20:58:54.831Z,5.75
2022-08-26T21:01:26.361Z,7.28
2022-08-26T21:03:55.181Z,7.90
2022-08-26T21:06:23.489Z,7.30
2022-08-26T21:08:51.382Z,7.15
2022-08-26T21:11:21.004Z,7.55
2022-08-26T21:14:04.529Z,7.60
2022-08-26T21:16:37.038Z,7.63
2022-08-26T21:19:09.433Z,7.35
2022-08-26T21:21:37.034Z,7.82
2022-08-26T21:24:04.705Z,7.75
2022-08-26T21:26:32.093Z,6.78
2022-08-26T21:29:02.038Z,6.47
2022-08-26T21:31:32.284Z,6.50
2022-08-26T21:34:00.601Z,6.70
2022-08-26T21:36:28.193Z,5.68
2022-08-26T21:38:59.534Z,6.40
2022-08-26T21:41:29.050Z,6.50
2022-08-26T21:43:59.547Z,6.20
2022-08-26T21:46:29.391Z,6.85
2022-08-26T21:49:03.318Z,6.97
2022-08-26T21:51:33.258Z,8.40
2022-08-26T21:54:02.403Z,7.88
2022-08-26T21:56:32.307Z,7.82
2022-08-26T21:59:00.583Z,7.43
2022-08-26T22:01:35.061Z,8.70
2022-08-26T22:04:05.697Z,7.65
2022-08-26T22:06:35.894Z,8.18
2022-08-26T22:09:03.398Z,8.65
2022-08-26T22:11:32.323Z,9.00
2022-08-26T22:13:59.776Z,9.13
2022-08-26T22:16:29.206Z,7.60
2022-08-26T22:18:56.776Z,6.40
2022-08-26T22:21:26.419Z,5.03
2022-08-26T22:23:58.051Z,5.38
2022-08-26T22:26:29.848Z,6.30
2022-08-26T22:28:59.396Z,6.40
2022-08-26T22:31:38.063Z,6.13
2022-08-26T22:34:12.905Z,6.50
2022-08-26T22:36:44.295Z,6.10
2022-08-26T22:39:14.877Z,5.75
2022-08-26T22:41:43.738Z,6.32
2022-08-26T22:44:12.214Z,6.00
2022-08-26T22:46:40.013Z,7.05
2022-08-26T22:49:10.001Z,6.85
2022-08-26T22:51:37.940Z,6.10
2022-08-26T22:54:05.995Z,5.82
2022-08-26T22:56:33.468Z,6.40
2022-08-26T22:59:01.195Z,6.65
2022-08-26T23:01:28.777Z,6.00
2022-08-26T23:03:56.218Z,6.20
2022-08-26T23:06:23.825Z,7.20
2022-08-26T23:08:51.199Z,6.07
2022-08-26T23:11:19.421Z,6.28
2022-08-26T23:13:47.046Z,6.35
2022-08-26T23:16:14.473Z,6.90
2022-08-26T23:18:42.489Z,6.53
2022-08-26T23:21:11.003Z,6.95
2022-08-26T23:23:38.868Z,7.03
2022-08-26T23:26:08.185Z,6.28
2022-08-26T23:28:40.053Z,6.07
2022-08-26T23:31:08.014Z,6.93
2022-08-26T23:33:54.172Z,6.03
2022-08-26T23:36:23.059Z,5.63
2022-08-26T23:38:52.690Z,6.73
2022-08-26T23:41:23.078Z,6.30
2022-08-26T23:43:52.125Z,6.50
2022-08-26T23:46:19.915Z,6.00
2022-08-26T23:48:47.858Z,6.70
2022-08-26T23:51:33.941Z,6.50
2022-08-26T23:54:01.518Z,7.20
2022-08-26T23:56:29.454Z,5.97
2022-08-26T23:58:56.989Z,6.32
